Megalochari Vii — SY6064 — position and weather

sailwx.info

Track history (hours):
 
Tides and Currents Weather Stations Pressure Air Temp Water Temp Dewpoint Dewpoint Depression Visibility Wind Speed Wind Dir Waves Ship Positions

Megalochari Vii

Last reported at 2015-May-23 02:19 UTC. Time now 2015-May-23 08:46 UTC.
Position N 37°38' E 023°57'.

Length 27 m; draft 4.8 m.

Type: Tug. MMSI: 240391000.

Date/timePositionNaut miles runAvg speedWind from/ knotsBaromVisibWave heightAir tempDewpointWater temp
2015-May-23 02:19N 37°38' E 023°57'8 9.5
2015-May-23 01:29N 37°42' E 023°49'910.3
2015-May-23 00:34N 37°50' E 023°42'9 8.6
2015-May-22 23:34N 37°57' E 023°36'0 0.2
2015-May-22 22:34N 37°58' E 023°37'0 0.0
2015-May-22 21:33N 37°58' E 023°37'0 0.0
2015-May-22 20:33N 37°58' E 023°37'0 0.0
2015-May-22 19:34N 37°58' E 023°37'0 0.0
2015-May-22 18:34N 37°58' E 023°37'0 0.0
2015-May-22 17:34N 37°58' E 023°37'0 0.0
2015-May-22 16:34N 37°58' E 023°37'0 0.0
2015-May-22 15:34N 37°58' E 023°37'0 0.0
2015-May-22 14:33N 37°58' E 023°37'0 0.0
2015-May-22 13:34N 37°58' E 023°37'0 0.0
2015-May-22 12:34N 37°58' E 023°37'0 0.0
2015-May-22 11:04N 37°58' E 023°37'0 0.4
2015-May-22 10:33N 37°58' E 023°37'0 0.2
2015-May-22 09:34N 37°58' E 023°37'0 0.0
2015-May-22 08:34N 37°58' E 023°37'0 0.0
2015-May-22 07:34N 37°58' E 023°37'0 0.5
2015-May-22 06:34N 37°58' E 023°36'1 0.8
2015-May-22 05:34N 37°57' E 023°36'0 0.1
2015-May-22 04:33N 37°57' E 023°36'1 1.0
2015-May-22 03:34N 37°58' E 023°37'0 0.0
2015-May-22 02:33N 37°58' E 023°37'0 0.0
2015-May-22 01:34N 37°58' E 023°37'0 0.0
2015-May-22 00:34N 37°58' E 023°37'0 0.0
2015-May-21 23:33N 37°58' E 023°37'0 0.0
2015-May-21 22:33N 37°58' E 023°37'0 0.0
2015-May-21 21:34N 37°58' E 023°37'0 0.0
2015-May-21 20:34N 37°58' E 023°37'0 0.0
2015-May-21 19:33N 37°58' E 023°37'0 0.0
2015-May-21 18:33N 37°58' E 023°37'0 0.0
2015-May-21 17:34N 37°58' E 023°37'0 0.0
2015-May-21 16:34N 37°58' E 023°37'0 0.0
2015-May-21 15:31N 37°58' E 023°37'1 0.7
2015-May-21 13:26N 37°57' E 023°35'0 0.0
2015-May-21 12:30N 37°57' E 023°35'0 0.0
2015-May-21 11:30N 37°57' E 023°35'0 0.0
2015-May-21 10:34N 37°57' E 023°35'0 0.0
2015-May-21 09:34N 37°57' E 023°35'0 0.0
2015-May-21 08:34N 37°57' E 023°35'0 0.0
2015-May-21 07:34N 37°57' E 023°35'0 0.3
2015-May-21 06:34N 37°57' E 023°35'1 1.3
2015-May-21 05:33N 37°58' E 023°37'0 0.3
2015-May-21 04:34N 37°57' E 023°36'1 0.7
2015-May-21 03:34N 37°57' E 023°36'1 0.9
2015-May-21 02:34N 37°58' E 023°37'0 0.0
2015-May-21 01:34N 37°58' E 023°37'0 0.0
2015-May-21 00:34N 37°58' E 023°37'0 0.0
2015-May-20 23:34N 37°58' E 023°37'0 0.0
2015-May-20 22:34N 37°58' E 023°37'0 0.0
2015-May-20 21:34N 37°58' E 023°37'0 0.0
2015-May-20 20:34N 37°58' E 023°37'0 0.0
2015-May-20 19:34N 37°58' E 023°37'0 0.0
2015-May-20 18:34N 37°58' E 023°37'0 0.0
2015-May-20 17:34N 37°58' E 023°37'0 0.0
2015-May-20 16:34N 37°58' E 023°37'0 0.0
2015-May-20 15:33N 37°58' E 023°37'1 0.8
2015-May-20 14:34N 37°57' E 023°36'6 6.3
2015-May-20 13:33N 38°03' E 023°32'1 0.6
2015-May-20 12:13N 38°02' E 023°33'0 0.0
2015-May-20 11:16N 38°02' E 023°33'0 0.0
2015-May-20 10:33N 38°02' E 023°33'2 0.8
2015-May-20 08:33N 38°02' E 023°31'1 1.4
2015-May-20 07:33N 38°01' E 023°32'5 4.6
2015-May-20 06:33N 37°57' E 023°35'1 1.1
2015-May-20 05:33N 37°57' E 023°36'2 1.9
2015-May-20 04:33N 37°56' E 023°37'2 1.9
2015-May-20 03:33N 37°58' E 023°37'0 0.0
2015-May-20 02:34N 37°58' E 023°37'0 0.0
2015-May-20 01:33N 37°58' E 023°37'0 0.0
2015-May-20 00:33N 37°58' E 023°37'0 0.0
2015-May-19 23:33N 37°58' E 023°37'0 0.0
2015-May-19 22:33N 37°58' E 023°37'0 0.0
2015-May-19 21:33N 37°58' E 023°37'0 0.0
2015-May-19 20:33N 37°58' E 023°37'0 0.0
2015-May-19 19:34N 37°58' E 023°37'0 0.0
2015-May-19 18:33N 37°58' E 023°37'0 0.0
2015-May-19 17:33N 37°58' E 023°37'0 0.0
2015-May-19 16:33N 37°58' E 023°37'0 0.0
2015-May-19 15:33N 37°58' E 023°37'0 0.0
2015-May-19 14:33N 37°58' E 023°37'0 0.0
2015-May-19 13:33N 37°58' E 023°37'0 0.0
2015-May-19 12:33N 37°58' E 023°37'0 0.0
2015-May-19 11:33N 37°58' E 023°37'1 0.9
2015-May-19 10:33N 37°57' E 023°36'3 3.1
2015-May-19 09:33N 37°59' E 023°33'3 3.5
2015-May-19 08:33N 38°02' E 023°32'3 3.4
2015-May-19 07:33N 37°59' E 023°33'3 3.2
2015-May-19 06:33N 37°57' E 023°36'0 0.0
2015-May-19 05:33N 37°57' E 023°36'1 0.7
2015-May-19 04:33N 37°58' E 023°37'0 0.2
2015-May-19 03:33N 37°58' E 023°37'0 0.0
2015-May-19 02:33N 37°58' E 023°37'0 0.0
2015-May-19 01:33N 37°58' E 023°37'0 0.0
2015-May-19 00:33N 37°58' E 023°37'0 0.0
2015-May-18 23:33N 37°58' E 023°37'0 0.0
2015-May-18 22:33N 37°58' E 023°37'0 0.0
2015-May-18 21:33N 37°58' E 023°37'0 0.0
2015-May-18 20:33N 37°58' E 023°37'0 0.0
2015-May-18 19:33N 37°58' E 023°37'0 0.0
2015-May-18 18:33N 37°58' E 023°37'0 0.0
2015-May-18 17:33N 37°58' E 023°37'0 0.0
2015-May-18 16:33N 37°58' E 023°37'0 0.0
2015-May-18 15:33N 37°58' E 023°37'0 0.0
2015-May-18 14:33N 37°58' E 023°37'0 0.0
2015-May-18 13:33N 37°58' E 023°37'0 0.0
2015-May-18 12:34N 37°58' E 023°37'0 0.0
2015-May-18 11:33N 37°58' E 023°37'0 0.0
2015-May-18 10:33N 37°58' E 023°37'0 0.0
2015-May-18 09:33N 37°58' E 023°37'0 0.0
2015-May-18 08:33N 37°58' E 023°37'0 0.0
2015-May-18 07:33N 37°58' E 023°37'0 0.0
2015-May-18 06:33N 37°58' E 023°37'0 0.0
2015-May-18 05:33N 37°58' E 023°37'2 2.0
2015-May-18 04:33N 37°56' E 023°35'2 1.5
2015-May-18 03:33N 37°57' E 023°36'1 0.7
2015-May-18 02:33N 37°58' E 023°37'0 0.0
2015-May-18 01:33N 37°58' E 023°37'0 0.0
2015-May-18 00:33N 37°58' E 023°37'0 0.0
2015-May-17 23:33N 37°58' E 023°37'0 0.0
2015-May-17 22:33N 37°58' E 023°37'0 0.0
2015-May-17 21:33N 37°58' E 023°37'0 0.0
2015-May-17 20:33N 37°58' E 023°37'0 0.0
2015-May-17 19:33N 37°58' E 023°37'0 0.0
2015-May-17 18:33N 37°58' E 023°37'0 0.0
2015-May-17 17:33N 37°58' E 023°37'0 0.0
2015-May-17 16:33N 37°58' E 023°37'0 0.0
2015-May-17 15:33N 37°58' E 023°37'0 0.0
2015-May-17 14:34N 37°58' E 023°37'0 0.0
2015-May-17 13:33N 37°58' E 023°37'0 0.0
2015-May-17 12:33N 37°58' E 023°37'0 0.0
2015-May-17 11:33N 37°58' E 023°37'0 0.0
2015-May-17 10:33N 37°58' E 023°37'0 0.0
2015-May-17 09:33N 37°58' E 023°37'0 0.0
2015-May-17 08:33N 37°58' E 023°37'0 0.0
2015-May-17 07:33N 37°58' E 023°37'0 0.0
2015-May-17 06:34N 37°58' E 023°37'0 0.0
2015-May-17 05:33N 37°58' E 023°37'0 0.0
2015-May-17 04:33N 37°58' E 023°37'0 0.0
2015-May-17 03:33N 37°58' E 023°37'0 0.0
2015-May-17 02:33N 37°58' E 023°37'0 0.0
2015-May-17 01:33N 37°58' E 023°37'0 0.0
2015-May-17 00:33N 37°58' E 023°37'0 0.0
2015-May-16 23:33N 37°58' E 023°37'0 0.0
2015-May-16 22:33N 37°58' E 023°37'0 0.0
2015-May-16 21:33N 37°58' E 023°37'0 0.0
2015-May-16 20:33N 37°58' E 023°37'0 0.0
2015-May-16 19:33N 37°58' E 023°37'0 0.0
2015-May-16 18:33N 37°58' E 023°37'0 0.0
2015-May-16 17:33N 37°58' E 023°37'0 0.0
2015-May-16 16:33N 37°58' E 023°37'0 0.0
2015-May-16 15:33N 37°58' E 023°37'0 0.0
2015-May-16 14:33N 37°58' E 023°37'0 0.0
2015-May-16 13:33N 37°58' E 023°37'2 1.7
2015-May-16 12:33N 37°57' E 023°35'1 0.8
2015-May-16 11:33N 37°57' E 023°34'2 1.6
2015-May-16 10:33N 37°57' E 023°36'0 0.3
2015-May-16 09:33N 37°57' E 023°36'0 0.2
2015-May-16 08:33N 37°57' E 023°35'2 1.9
2015-May-16 07:33N 37°58' E 023°33'0 0.2
2015-May-16 06:33N 37°57' E 023°33'2 2.3
2015-May-16 05:33N 37°57' E 023°36'0 0.4
2015-May-16 04:33N 37°58' E 023°37'1 0.9
2015-May-16 03:33N 37°57' E 023°36'1 0.9
2015-May-16 02:33N 37°58' E 023°37'0 0.0
2015-May-16 01:33N 37°58' E 023°37'0 0.0
2015-May-16 00:33N 37°58' E 023°37'0 0.0
2015-May-15 23:33N 37°58' E 023°37'0 0.0
2015-May-15 22:33N 37°58' E 023°37'0 0.0
2015-May-15 21:33N 37°58' E 023°37'0 0.0
2015-May-15 20:33N 37°58' E 023°37'0 0.0
2015-May-15 19:33N 37°58' E 023°37'0 0.0
2015-May-15 18:34N 37°58' E 023°37'0 0.0
2015-May-15 17:33N 37°58' E 023°37'0 0.0
2015-May-15 16:33N 37°58' E 023°37'5 4.6
2015-May-15 15:33N 38°01' E 023°33'1 1.2
2015-May-15 14:33N 38°02' E 023°33'0 0.0
2015-May-15 13:33N 38°02' E 023°33'0 0.0
2015-May-15 12:25N 38°02' E 023°33'0 0.0
2015-May-15 11:32N 38°02' E 023°33'0 0.0
2015-May-15 10:33N 38°02' E 023°33'0 0.0
2015-May-15 09:32N 38°02' E 023°33'1 1.4
2015-May-15 08:33N 38°01' E 023°33'2 1.9
2015-May-15 07:33N 38°02' E 023°31'6 1.8
2015-May-15 04:11N 37°57' E 023°36'0 0.5
2015-May-15 03:33N 37°57' E 023°36'1 0.6
2015-May-15 02:33N 37°58' E 023°37'0 0.0
2015-May-15 01:33N 37°58' E 023°37'0 0.0
2015-May-15 00:33N 37°58' E 023°37'0 0.0
2015-May-14 23:33N 37°58' E 023°37'0 0.0
2015-May-14 22:33N 37°58' E 023°37'0 0.0
2015-May-14 21:33N 37°58' E 023°37'0 0.0
2015-May-14 20:33N 37°58' E 023°37'0 0.0
2015-May-14 19:33N 37°58' E 023°37'0 0.0
2015-May-14 04:10N 37°58' E 023°37'0 0.0
2015-May-14 03:18N 37°58' E 023°37'0 0.0
2015-May-14 02:32N 37°58' E 023°37'0 0.0
2015-May-14 01:33N 37°58' E 023°37'0 0.0
2015-May-14 00:33N 37°58' E 023°37'0 0.0
2015-May-13 23:33N 37°58' E 023°37'0 0.0
2015-May-13 22:33N 37°58' E 023°37'0 0.0
2015-May-13 21:33N 37°58' E 023°37'0 0.0
2015-May-13 20:33N 37°58' E 023°37'0 0.0
2015-May-13 19:33N 37°58' E 023°37'0 0.0
2015-May-13 18:33N 37°58' E 023°37'0 0.0
2015-May-13 17:33N 37°58' E 023°37'0 0.0
2015-May-13 16:33N 37°58' E 023°37'0 0.0
2015-May-13 15:34N 37°58' E 023°37'0 0.0
2015-May-13 14:33N 37°58' E 023°37'0 0.0
2015-May-13 13:33N 37°58' E 023°37'0 0.0
2015-May-13 12:33N 37°58' E 023°37'0 0.0
2015-May-13 11:33N 37°58' E 023°37'5 4.9
2015-May-13 10:27N 38°02' E 023°33'1 0.6
2015-May-13 09:28N 38°02' E 023°32'2 1.9
2015-May-13 08:33N 38°01' E 023°30'1 0.6
2015-May-13 07:33N 38°02' E 023°30'0 0.2
2015-May-13 06:33N 38°02' E 023°30'2 2.4
2015-May-13 05:33N 38°02' E 023°33'5 5.4
2015-May-13 04:33N 37°57' E 023°35'2 2.3
2015-May-13 03:33N 37°55' E 023°36'2 2.1
2015-May-13 02:33N 37°53' E 023°38'  
Track history (hours):
 
Tides and Currents Weather Stations Pressure Air Temp Water Temp Dewpoint Dewpoint Depression Visibility Wind Speed Wind Dir Waves Ship Positions

Megalochari Vii

Last reported at 2015-May-23 02:19 UTC. Time now 2015-May-23 08:46 UTC.
Position N 37°38' E 023°57'.

Length 27 m; draft 4.8 m.

Type: Tug. MMSI: 240391000.

Date/timePositionNaut miles runAvg speedWind from/ knotsBaromVisibWave heightAir tempDewpointWater temp
2015-May-23 02:19N 37°38' E 023°57'8 9.5
2015-May-23 01:29N 37°42' E 023°49'910.3
2015-May-23 00:34N 37°50' E 023°42'9 8.6
2015-May-22 23:34N 37°57' E 023°36'0 0.2
2015-May-22 22:34N 37°58' E 023°37'0 0.0
2015-May-22 21:33N 37°58' E 023°37'0 0.0
2015-May-22 20:33N 37°58' E 023°37'0 0.0
2015-May-22 19:34N 37°58' E 023°37'0 0.0
2015-May-22 18:34N 37°58' E 023°37'0 0.0
2015-May-22 17:34N 37°58' E 023°37'0 0.0
2015-May-22 16:34N 37°58' E 023°37'0 0.0
2015-May-22 15:34N 37°58' E 023°37'0 0.0
2015-May-22 14:33N 37°58' E 023°37'0 0.0
2015-May-22 13:34N 37°58' E 023°37'0 0.0
2015-May-22 12:34N 37°58' E 023°37'0 0.0
2015-May-22 11:04N 37°58' E 023°37'0 0.4
2015-May-22 10:33N 37°58' E 023°37'0 0.2
2015-May-22 09:34N 37°58' E 023°37'0 0.0
2015-May-22 08:34N 37°58' E 023°37'0 0.0
2015-May-22 07:34N 37°58' E 023°37'0 0.5
2015-May-22 06:34N 37°58' E 023°36'1 0.8
2015-May-22 05:34N 37°57' E 023°36'0 0.1
2015-May-22 04:33N 37°57' E 023°36'1 1.0
2015-May-22 03:34N 37°58' E 023°37'0 0.0
2015-May-22 02:33N 37°58' E 023°37'0 0.0
2015-May-22 01:34N 37°58' E 023°37'0 0.0
2015-May-22 00:34N 37°58' E 023°37'0 0.0
2015-May-21 23:33N 37°58' E 023°37'0 0.0
2015-May-21 22:33N 37°58' E 023°37'0 0.0
2015-May-21 21:34N 37°58' E 023°37'0 0.0
2015-May-21 20:34N 37°58' E 023°37'0 0.0
2015-May-21 19:33N 37°58' E 023°37'0 0.0
2015-May-21 18:33N 37°58' E 023°37'0 0.0
2015-May-21 17:34N 37°58' E 023°37'0 0.0
2015-May-21 16:34N 37°58' E 023°37'0 0.0
2015-May-21 15:31N 37°58' E 023°37'1 0.7
2015-May-21 13:26N 37°57' E 023°35'0 0.0
2015-May-21 12:30N 37°57' E 023°35'0 0.0
2015-May-21 11:30N 37°57' E 023°35'0 0.0
2015-May-21 10:34N 37°57' E 023°35'0 0.0
2015-May-21 09:34N 37°57' E 023°35'0 0.0
2015-May-21 08:34N 37°57' E 023°35'0 0.0
2015-May-21 07:34N 37°57' E 023°35'0 0.3
2015-May-21 06:34N 37°57' E 023°35'1 1.3
2015-May-21 05:33N 37°58' E 023°37'0 0.3
2015-May-21 04:34N 37°57' E 023°36'1 0.7
2015-May-21 03:34N 37°57' E 023°36'1 0.9
2015-May-21 02:34N 37°58' E 023°37'0 0.0
2015-May-21 01:34N 37°58' E 023°37'0 0.0
2015-May-21 00:34N 37°58' E 023°37'0 0.0
2015-May-20 23:34N 37°58' E 023°37'0 0.0
2015-May-20 22:34N 37°58' E 023°37'0 0.0
2015-May-20 21:34N 37°58' E 023°37'0 0.0
2015-May-20 20:34N 37°58' E 023°37'0 0.0
2015-May-20 19:34N 37°58' E 023°37'0 0.0
2015-May-20 18:34N 37°58' E 023°37'0 0.0
2015-May-20 17:34N 37°58' E 023°37'0 0.0
2015-May-20 16:34N 37°58' E 023°37'0 0.0
2015-May-20 15:33N 37°58' E 023°37'1 0.8
2015-May-20 14:34N 37°57' E 023°36'6 6.3
2015-May-20 13:33N 38°03' E 023°32'1 0.6
2015-May-20 12:13N 38°02' E 023°33'0 0.0
2015-May-20 11:16N 38°02' E 023°33'0 0.0
2015-May-20 10:33N 38°02' E 023°33'2 0.8
2015-May-20 08:33N 38°02' E 023°31'1 1.4
2015-May-20 07:33N 38°01' E 023°32'5 4.6
2015-May-20 06:33N 37°57' E 023°35'1 1.1
2015-May-20 05:33N 37°57' E 023°36'2 1.9
2015-May-20 04:33N 37°56' E 023°37'2 1.9
2015-May-20 03:33N 37°58' E 023°37'0 0.0
2015-May-20 02:34N 37°58' E 023°37'0 0.0
2015-May-20 01:33N 37°58' E 023°37'0 0.0
2015-May-20 00:33N 37°58' E 023°37'0 0.0
2015-May-19 23:33N 37°58' E 023°37'0 0.0
2015-May-19 22:33N 37°58' E 023°37'0 0.0
2015-May-19 21:33N 37°58' E 023°37'0 0.0
2015-May-19 20:33N 37°58' E 023°37'0 0.0
2015-May-19 19:34N 37°58' E 023°37'0 0.0
2015-May-19 18:33N 37°58' E 023°37'0 0.0
2015-May-19 17:33N 37°58' E 023°37'0 0.0
2015-May-19 16:33N 37°58' E 023°37'0 0.0
2015-May-19 15:33N 37°58' E 023°37'0 0.0
2015-May-19 14:33N 37°58' E 023°37'0 0.0
2015-May-19 13:33N 37°58' E 023°37'0 0.0
2015-May-19 12:33N 37°58' E 023°37'0 0.0
2015-May-19 11:33N 37°58' E 023°37'1 0.9
2015-May-19 10:33N 37°57' E 023°36'3 3.1
2015-May-19 09:33N 37°59' E 023°33'3 3.5
2015-May-19 08:33N 38°02' E 023°32'3 3.4
2015-May-19 07:33N 37°59' E 023°33'3 3.2
2015-May-19 06:33N 37°57' E 023°36'0 0.0
2015-May-19 05:33N 37°57' E 023°36'1 0.7
2015-May-19 04:33N 37°58' E 023°37'0 0.2
2015-May-19 03:33N 37°58' E 023°37'0 0.0
2015-May-19 02:33N 37°58' E 023°37'0 0.0
2015-May-19 01:33N 37°58' E 023°37'0 0.0
2015-May-19 00:33N 37°58' E 023°37'0 0.0
2015-May-18 23:33N 37°58' E 023°37'0 0.0
2015-May-18 22:33N 37°58' E 023°37'0 0.0
2015-May-18 21:33N 37°58' E 023°37'0 0.0
2015-May-18 20:33N 37°58' E 023°37'0 0.0
2015-May-18 19:33N 37°58' E 023°37'0 0.0
2015-May-18 18:33N 37°58' E 023°37'0 0.0
2015-May-18 17:33N 37°58' E 023°37'0 0.0
2015-May-18 16:33N 37°58' E 023°37'0 0.0
2015-May-18 15:33N 37°58' E 023°37'0 0.0
2015-May-18 14:33N 37°58' E 023°37'0 0.0
2015-May-18 13:33N 37°58' E 023°37'0 0.0
2015-May-18 12:34N 37°58' E 023°37'0 0.0
2015-May-18 11:33N 37°58' E 023°37'0 0.0
2015-May-18 10:33N 37°58' E 023°37'0 0.0
2015-May-18 09:33N 37°58' E 023°37'0 0.0
2015-May-18 08:33N 37°58' E 023°37'0 0.0
2015-May-18 07:33N 37°58' E 023°37'0 0.0
2015-May-18 06:33N 37°58' E 023°37'0 0.0
2015-May-18 05:33N 37°58' E 023°37'2 2.0
2015-May-18 04:33N 37°56' E 023°35'2 1.5
2015-May-18 03:33N 37°57' E 023°36'1 0.7
2015-May-18 02:33N 37°58' E 023°37'0 0.0
2015-May-18 01:33N 37°58' E 023°37'0 0.0
2015-May-18 00:33N 37°58' E 023°37'0 0.0
2015-May-17 23:33N 37°58' E 023°37'0 0.0
2015-May-17 22:33N 37°58' E 023°37'0 0.0
2015-May-17 21:33N 37°58' E 023°37'0 0.0
2015-May-17 20:33N 37°58' E 023°37'0 0.0
2015-May-17 19:33N 37°58' E 023°37'0 0.0
2015-May-17 18:33N 37°58' E 023°37'0 0.0
2015-May-17 17:33N 37°58' E 023°37'0 0.0
2015-May-17 16:33N 37°58' E 023°37'0 0.0
2015-May-17 15:33N 37°58' E 023°37'0 0.0
2015-May-17 14:34N 37°58' E 023°37'0 0.0
2015-May-17 13:33N 37°58' E 023°37'0 0.0
2015-May-17 12:33N 37°58' E 023°37'0 0.0
2015-May-17 11:33N 37°58' E 023°37'0 0.0
2015-May-17 10:33N 37°58' E 023°37'0 0.0
2015-May-17 09:33N 37°58' E 023°37'0 0.0
2015-May-17 08:33N 37°58' E 023°37'0 0.0
2015-May-17 07:33N 37°58' E 023°37'0 0.0
2015-May-17 06:34N 37°58' E 023°37'0 0.0
2015-May-17 05:33N 37°58' E 023°37'0 0.0
2015-May-17 04:33N 37°58' E 023°37'0 0.0
2015-May-17 03:33N 37°58' E 023°37'0 0.0
2015-May-17 02:33N 37°58' E 023°37'0 0.0
2015-May-17 01:33N 37°58' E 023°37'0 0.0
2015-May-17 00:33N 37°58' E 023°37'0 0.0
2015-May-16 23:33N 37°58' E 023°37'0 0.0
2015-May-16 22:33N 37°58' E 023°37'0 0.0
2015-May-16 21:33N 37°58' E 023°37'0 0.0
2015-May-16 20:33N 37°58' E 023°37'0 0.0
2015-May-16 19:33N 37°58' E 023°37'0 0.0
2015-May-16 18:33N 37°58' E 023°37'0 0.0
2015-May-16 17:33N 37°58' E 023°37'0 0.0
2015-May-16 16:33N 37°58' E 023°37'0 0.0
2015-May-16 15:33N 37°58' E 023°37'0 0.0
2015-May-16 14:33N 37°58' E 023°37'0 0.0
2015-May-16 13:33N 37°58' E 023°37'2 1.7
2015-May-16 12:33N 37°57' E 023°35'1 0.8
2015-May-16 11:33N 37°57' E 023°34'2 1.6
2015-May-16 10:33N 37°57' E 023°36'0 0.3
2015-May-16 09:33N 37°57' E 023°36'0 0.2
2015-May-16 08:33N 37°57' E 023°35'2 1.9
2015-May-16 07:33N 37°58' E 023°33'0 0.2
2015-May-16 06:33N 37°57' E 023°33'2 2.3
2015-May-16 05:33N 37°57' E 023°36'0 0.4
2015-May-16 04:33N 37°58' E 023°37'1 0.9
2015-May-16 03:33N 37°57' E 023°36'1 0.9
2015-May-16 02:33N 37°58' E 023°37'0 0.0
2015-May-16 01:33N 37°58' E 023°37'0 0.0
2015-May-16 00:33N 37°58' E 023°37'0 0.0
2015-May-15 23:33N 37°58' E 023°37'0 0.0
2015-May-15 22:33N 37°58' E 023°37'0 0.0
2015-May-15 21:33N 37°58' E 023°37'0 0.0
2015-May-15 20:33N 37°58' E 023°37'0 0.0
2015-May-15 19:33N 37°58' E 023°37'0 0.0
2015-May-15 18:34N 37°58' E 023°37'0 0.0
2015-May-15 17:33N 37°58' E 023°37'0 0.0
2015-May-15 16:33N 37°58' E 023°37'5 4.6
2015-May-15 15:33N 38°01' E 023°33'1 1.2
2015-May-15 14:33N 38°02' E 023°33'0 0.0
2015-May-15 13:33N 38°02' E 023°33'0 0.0
2015-May-15 12:25N 38°02' E 023°33'0 0.0
2015-May-15 11:32N 38°02' E 023°33'0 0.0
2015-May-15 10:33N 38°02' E 023°33'0 0.0
2015-May-15 09:32N 38°02' E 023°33'1 1.4
2015-May-15 08:33N 38°01' E 023°33'2 1.9
2015-May-15 07:33N 38°02' E 023°31'6 1.8
2015-May-15 04:11N 37°57' E 023°36'0 0.5
2015-May-15 03:33N 37°57' E 023°36'1 0.6
2015-May-15 02:33N 37°58' E 023°37'0 0.0
2015-May-15 01:33N 37°58' E 023°37'0 0.0
2015-May-15 00:33N 37°58' E 023°37'0 0.0
2015-May-14 23:33N 37°58' E 023°37'0 0.0
2015-May-14 22:33N 37°58' E 023°37'0 0.0
2015-May-14 21:33N 37°58' E 023°37'0 0.0
2015-May-14 20:33N 37°58' E 023°37'0 0.0
2015-May-14 19:33N 37°58' E 023°37'0 0.0
2015-May-14 04:10N 37°58' E 023°37'0 0.0
2015-May-14 03:18N 37°58' E 023°37'0 0.0
2015-May-14 02:32N 37°58' E 023°37'0 0.0
2015-May-14 01:33N 37°58' E 023°37'0 0.0
2015-May-14 00:33N 37°58' E 023°37'0 0.0
2015-May-13 23:33N 37°58' E 023°37'0 0.0
2015-May-13 22:33N 37°58' E 023°37'0 0.0
2015-May-13 21:33N 37°58' E 023°37'0 0.0
2015-May-13 20:33N 37°58' E 023°37'0 0.0
2015-May-13 19:33N 37°58' E 023°37'0 0.0
2015-May-13 18:33N 37°58' E 023°37'0 0.0
2015-May-13 17:33N 37°58' E 023°37'0 0.0
2015-May-13 16:33N 37°58' E 023°37'0 0.0
2015-May-13 15:34N 37°58' E 023°37'0 0.0
2015-May-13 14:33N 37°58' E 023°37'0 0.0
2015-May-13 13:33N 37°58' E 023°37'0 0.0
2015-May-13 12:33N 37°58' E 023°37'0 0.0
2015-May-13 11:33N 37°58' E 023°37'5 4.9
2015-May-13 10:27N 38°02' E 023°33'1 0.6
2015-May-13 09:28N 38°02' E 023°32'2 1.9
2015-May-13 08:33N 38°01' E 023°30'1 0.6
2015-May-13 07:33N 38°02' E 023°30'0 0.2
2015-May-13 06:33N 38°02' E 023°30'2 2.4
2015-May-13 05:33N 38°02' E 023°33'5 5.4
2015-May-13 04:33N 37°57' E 023°35'2 2.3
2015-May-13 03:33N 37°55' E 023°36'2 2.1
2015-May-13 02:33N 37°53' E 023°38'  

Dump ship's entire track history